sensor_id;sensor_type;location;lat;lon;timestamp;pressure;altitude;pressure_sealevel;temperature;humidity
13367;BME280;6752;52.612;13.630;2022-10-16T00:01:30;100470.46;;;15.07;100.00
13367;BME280;6752;52.612;13.630;2022-10-16T00:06:31;100475.34;;;15.13;100.00
13367;BME280;6752;52.612;13.630;2022-10-16T00:11:35;100481.67;;;15.03;100.00
13367;BME280;6752;52.612;13.630;2022-10-16T00:16:38;100491.65;;;15.11;100.00
13367;BME280;6752;52.612;13.630;2022-10-16T00:21:41;100482.61;;;15.14;100.00
13367;BME280;6752;52.612;13.630;2022-10-16T00:26:43;100495.30;;;15.06;100.00
13367;BME280;6752;52.612;13.630;2022-10-16T00:31:46;100507.70;;;15.11;100.00
13367;BME280;6752;52.612;13.630;2022-10-16T00:36:49;100506.62;;;15.12;100.00
13367;BME280;6752;52.612;13.630;2022-10-16T00:41:52;100508.47;;;15.15;100.00
13367;BME280;6752;52.612;13.630;2022-10-16T00:46:54;100514.69;;;15.19;100.00
13367;BME280;6752;52.612;13.630;2022-10-16T00:51:57;100506.51;;;15.24;100.00
13367;BME280;6752;52.612;13.630;2022-10-16T00:57:03;100503.34;;;15.24;100.00
13367;BME280;6752;52.612;13.630;2022-10-16T01:02:05;100511.21;;;15.15;100.00
13367;BME280;6752;52.612;13.630;2022-10-16T01:07:14;100515.48;;;15.17;100.00
13367;BME280;6752;52.612;13.630;2022-10-16T01:12:30;100526.45;;;15.06;100.00
13367;BME280;6752;52.612;13.630;2022-10-16T01:17:52;100533.59;;;15.15;100.00
13367;BME280;6752;52.612;13.630;2022-10-16T01:22:39;100531.03;;;15.19;100.00
13367;BME280;6752;52.612;13.630;2022-10-16T01:27:40;100530.49;;;15.20;100.00
13367;BME280;6752;52.612;13.630;2022-10-16T01:32:44;100519.19;;;15.16;100.00
13367;BME280;6752;52.612;13.630;2022-10-16T01:37:46;100538.48;;;15.13;100.00
13367;BME280;6752;52.612;13.630;2022-10-16T01:42:51;100541.16;;;15.16;100.00
13367;BME280;6752;52.612;13.630;2022-10-16T01:47:52;100549.14;;;14.99;100.00
13367;BME280;6752;52.612;13.630;2022-10-16T01:53:00;100550.70;;;15.03;100.00
13367;BME280;6752;52.612;13.630;2022-10-16T01:58:03;100550.48;;;14.96;100.00
13367;BME280;6752;52.612;13.630;2022-10-16T02:03:08;100543.30;;;15.03;100.00
13367;BME280;6752;52.612;13.630;2022-10-16T02:08:10;100550.32;;;15.05;100.00
13367;BME280;6752;52.612;13.630;2022-10-16T02:13:51;100562.73;;;15.10;100.00
13367;BME280;6752;52.612;13.630;2022-10-16T02:18:30;100568.99;;;15.06;100.00
13367;BME280;6752;52.612;13.630;2022-10-16T02:23:52;100568.36;;;15.10;100.00
13367;BME280;6752;52.612;13.630;2022-10-16T02:28:54;100588.94;;;15.10;100.00
13367;BME280;6752;52.612;13.630;2022-10-16T02:33:58;100575.70;;;15.23;100.00
13367;BME280;6752;52.612;13.630;2022-10-16T02:39:02;100575.81;;;15.33;100.00
13367;BME280;6752;52.612;13.630;2022-10-16T02:44:06;100588.38;;;15.27;100.00
13367;BME280;6752;52.612;13.630;2022-10-16T02:49:08;100590.16;;;15.27;100.00
13367;BME280;6752;52.612;13.630;2022-10-16T02:54:13;100588.02;;;15.21;100.00
13367;BME280;6752;52.612;13.630;2022-10-16T02:59:16;100588.33;;;15.35;100.00
13367;BME280;6752;52.612;13.630;2022-10-16T03:04:21;100586.64;;;15.40;100.00
13367;BME280;6752;52.612;13.630;2022-10-16T03:09:24;100590.52;;;15.55;100.00
13367;BME280;6752;52.612;13.630;2022-10-16T03:14:30;100595.70;;;15.41;100.00
13367;BME280;6752;52.612;13.630;2022-10-16T03:19:32;100593.05;;;15.48;100.00
13367;BME280;6752;52.612;13.630;2022-10-16T03:24:38;100598.25;;;15.47;100.00
13367;BME280;6752;52.612;13.630;2022-10-16T03:29:40;100604.94;;;15.24;100.00
13367;BME280;6752;52.612;13.630;2022-10-16T03:34:45;100619.17;;;15.12;100.00
13367;BME280;6752;52.612;13.630;2022-10-16T03:39:48;100610.69;;;15.14;100.00
13367;BME280;6752;52.612;13.630;2022-10-16T03:44:53;100616.91;;;15.07;100.00
13367;BME280;6752;52.612;13.630;2022-10-16T03:49:56;100626.48;;;15.04;100.00
13367;BME280;6752;52.612;13.630;2022-10-16T03:55:01;100633.50;;;14.89;100.00
13367;BME280;6752;52.612;13.630;2022-10-16T04:00:03;100653.51;;;14.87;100.00
13367;BME280;6752;52.612;13.630;2022-10-16T04:05:06;100664.84;;;14.91;100.00
13367;BME280;6752;52.612;13.630;2022-10-16T04:10:08;100663.69;;;14.88;100.00
13367;BME280;6752;52.612;13.630;2022-10-16T04:15:13;100661.38;;;14.81;100.00
13367;BME280;6752;52.612;13.630;2022-10-16T04:20:15;100674.34;;;14.85;100.00
13367;BME280;6752;52.612;13.630;2022-10-16T04:25:21;100675.91;;;14.90;100.00
13367;BME280;6752;52.612;13.630;2022-10-16T04:30:23;100687.69;;;14.71;100.00
13367;BME280;6752;52.612;13.630;2022-10-16T04:35:25;100682.17;;;14.63;100.00
13367;BME280;6752;52.612;13.630;2022-10-16T04:40:27;100682.58;;;14.69;100.00
13367;BME280;6752;52.612;13.630;2022-10-16T04:45:33;100673.47;;;14.74;100.00
13367;BME280;6752;52.612;13.630;2022-10-16T04:50:35;100681.83;;;14.82;100.00
13367;BME280;6752;52.612;13.630;2022-10-16T04:55:40;100676.97;;;14.78;100.00
13367;BME280;6752;52.612;13.630;2022-10-16T05:00:43;100675.91;;;14.90;100.00
13367;BME280;6752;52.612;13.630;2022-10-16T05:05:47;100675.05;;;14.78;100.00
13367;BME280;6752;52.612;13.630;2022-10-16T05:10:50;100674.09;;;14.79;100.00
13367;BME280;6752;52.612;13.630;2022-10-16T05:15:55;100694.76;;;14.75;100.00
13367;BME280;6752;52.612;13.630;2022-10-16T05:20:57;100705.64;;;14.87;100.00
13367;BME280;6752;52.612;13.630;2022-10-16T05:26:02;100716.17;;;14.84;100.00
13367;BME280;6752;52.612;13.630;2022-10-16T05:31:08;100722.48;;;14.91;100.00
13367;BME280;6752;52.612;13.630;2022-10-16T05:36:11;100729.80;;;14.93;100.00
13367;BME280;6752;52.612;13.630;2022-10-16T05:41:16;100711.05;;;14.90;100.00
13367;BME280;6752;52.612;13.630;2022-10-16T05:46:18;100716.05;;;14.85;100.00
13367;BME280;6752;52.612;13.630;2022-10-16T05:51:20;100728.19;;;14.81;100.00
13367;BME280;6752;52.612;13.630;2022-10-16T05:56:25;100737.40;;;14.97;100.00
13367;BME280;6752;52.612;13.630;2022-10-16T06:01:28;100737.20;;;14.93;100.00
13367;BME280;6752;52.612;13.630;2022-10-16T06:06:33;100734.73;;;14.94;100.00
13367;BME280;6752;52.612;13.630;2022-10-16T06:11:36;100735.03;;;14.95;100.00
13367;BME280;6752;52.612;13.630;2022-10-16T06:16:41;100745.67;;;14.91;100.00
13367;BME280;6752;52.612;13.630;2022-10-16T06:21:44;100754.18;;;15.15;100.00
13367;BME280;6752;52.612;13.630;2022-10-16T06:26:46;100757.27;;;15.13;100.00
13367;BME280;6752;52.612;13.630;2022-10-16T06:31:48;100762.58;;;15.17;100.00
13367;BME280;6752;52.612;13.630;2022-10-16T06:36:51;100748.06;;;15.19;100.00
13367;BME280;6752;52.612;13.630;2022-10-16T06:41:53;100753.93;;;15.16;100.00
13367;BME280;6752;52.612;13.630;2022-10-16T06:46:56;100761.48;;;15.34;100.00
13367;BME280;6752;52.612;13.630;2022-10-16T06:51:58;100771.69;;;15.45;100.00
13367;BME280;6752;52.612;13.630;2022-10-16T06:57:01;100788.67;;;15.42;100.00
13367;BME280;6752;52.612;13.630;2022-10-16T07:02:03;100791.28;;;15.51;100.00
13367;BME280;6752;52.612;13.630;2022-10-16T07:07:05;100791.89;;;15.56;100.00
13367;BME280;6752;52.612;13.630;2022-10-16T07:12:08;100796.64;;;15.77;100.00
13367;BME280;6752;52.612;13.630;2022-10-16T07:17:10;100779.68;;;16.02;100.00
13367;BME280;6752;52.612;13.630;2022-10-16T07:22:13;100797.38;;;16.30;100.00
13367;BME280;6752;52.612;13.630;2022-10-16T07:27:16;100813.11;;;16.24;100.00
13367;BME280;6752;52.612;13.630;2022-10-16T07:32:18;100805.44;;;16.48;100.00
13367;BME280;6752;52.612;13.630;2022-10-16T07:37:21;100801.56;;;16.33;100.00
13367;BME280;6752;52.612;13.630;2022-10-16T07:42:23;100807.99;;;16.65;100.00
13367;BME280;6752;52.612;13.630;2022-10-16T07:47:26;100800.77;;;16.59;100.00
13367;BME280;6752;52.612;13.630;2022-10-16T07:52:28;100811.24;;;16.71;100.00
13367;BME280;6752;52.612;13.630;2022-10-16T07:57:30;100814.67;;;16.80;100.00
13367;BME280;6752;52.612;13.630;2022-10-16T08:02:33;100798.42;;;16.95;100.00
13367;BME280;6752;52.612;13.630;2022-10-16T08:07:35;100800.91;;;16.96;100.00
13367;BME280;6752;52.612;13.630;2022-10-16T08:12:37;100803.92;;;17.06;100.00
13367;BME280;6752;52.612;13.630;2022-10-16T08:17:39;100826.17;;;17.15;100.00
13367;BME280;6752;52.612;13.630;2022-10-16T08:22:42;100840.02;;;17.39;100.00
13367;BME280;6752;52.612;13.630;2022-10-16T08:27:44;100843.91;;;17.43;100.00
13367;BME280;6752;52.612;13.630;2022-10-16T08:32:46;100821.84;;;17.40;100.00
13367;BME280;6752;52.612;13.630;2022-10-16T08:37:49;100824.38;;;17.63;100.00
13367;BME280;6752;52.612;13.630;2022-10-16T08:43:14;100841.74;;;17.63;100.00
13367;BME280;6752;52.612;13.630;2022-10-16T08:58:40;100837.02;;;18.15;100.00
13367;BME280;6752;52.612;13.630;2022-10-16T09:09:42;100846.69;;;18.17;100.00
13367;BME280;6752;52.612;13.630;2022-10-16T09:25:18;100871.76;;;19.61;100.00
13367;BME280;6752;52.612;13.630;2022-10-16T09:30:17;100859.05;;;19.93;100.00
13367;BME280;6752;52.612;13.630;2022-10-16T09:35:31;100862.75;;;19.50;100.00
13367;BME280;6752;52.612;13.630;2022-10-16T09:40:37;100869.16;;;19.68;100.00
13367;BME280;6752;52.612;13.630;2022-10-16T09:45:38;100864.98;;;20.61;100.00
13367;BME280;6752;52.612;13.630;2022-10-16T09:50:40;100871.90;;;20.64;100.00
13367;BME280;6752;52.612;13.630;2022-10-16T09:55:52;100866.73;;;21.45;99.82
13367;BME280;6752;52.612;13.630;2022-10-16T10:00:54;100888.21;;;21.22;98.51
13367;BME280;6752;52.612;13.630;2022-10-16T10:06:00;100881.28;;;21.22;96.37
13367;BME280;6752;52.612;13.630;2022-10-16T10:11:01;100880.25;;;23.32;86.14
13367;BME280;6752;52.612;13.630;2022-10-16T10:16:07;100881.23;;;23.04;82.70
13367;BME280;6752;52.612;13.630;2022-10-16T10:21:13;100905.84;;;21.83;89.15
13367;BME280;6752;52.612;13.630;2022-10-16T10:26:20;100897.34;;;21.50;90.63
13367;BME280;6752;52.612;13.630;2022-10-16T10:31:27;100914.59;;;21.64;91.07
13367;BME280;6752;52.612;13.630;2022-10-16T10:36:41;100905.25;;;21.50;88.69
13367;BME280;6752;52.612;13.630;2022-10-16T10:41:54;100913.40;;;21.36;92.44
13367;BME280;6752;52.612;13.630;2022-10-16T10:46:51;100933.67;;;21.21;90.43
13367;BME280;6752;52.612;13.630;2022-10-16T10:57:30;100923.73;;;21.45;87.59
13367;BME280;6752;52.612;13.630;2022-10-16T11:02:38;100922.21;;;23.14;81.30
13367;BME280;6752;52.612;13.630;2022-10-16T11:07:41;100924.87;;;22.79;80.42
13367;BME280;6752;52.612;13.630;2022-10-16T11:12:46;100923.81;;;22.75;79.53
13367;BME280;6752;52.612;13.630;2022-10-16T11:17:52;100933.25;;;21.70;82.54
13367;BME280;6752;52.612;13.630;2022-10-16T11:23:02;100937.28;;;22.36;81.51
13367;BME280;6752;52.612;13.630;2022-10-16T11:28:16;100934.64;;;21.70;81.05
13367;BME280;6752;52.612;13.630;2022-10-16T11:33:34;100930.20;;;21.50;81.20
13367;BME280;6752;52.612;13.630;2022-10-16T11:38:47;100927.78;;;21.40;81.43
13367;BME280;6752;52.612;13.630;2022-10-16T11:43:52;100928.94;;;21.29;83.16
13367;BME280;6752;52.612;13.630;2022-10-16T11:49:14;100929.08;;;21.34;81.35
13367;BME280;6752;52.612;13.630;2022-10-16T11:54:21;100937.94;;;21.92;80.14
13367;BME280;6752;52.612;13.630;2022-10-16T11:59:45;100928.80;;;22.52;77.19
13367;BME280;6752;52.612;13.630;2022-10-16T12:04:48;100924.61;;;22.54;73.93
13367;BME280;6752;52.612;13.630;2022-10-16T12:09:47;100926.83;;;23.52;71.07
13367;BME280;6752;52.612;13.630;2022-10-16T12:15:03;100932.24;;;22.91;69.99
13367;BME280;6752;52.612;13.630;2022-10-16T12:25:21;100955.86;;;22.79;71.13
13367;BME280;6752;52.612;13.630;2022-10-16T12:30:23;100955.98;;;22.93;68.07
13367;BME280;6752;52.612;13.630;2022-10-16T12:35:33;100959.80;;;22.61;68.82
13367;BME280;6752;52.612;13.630;2022-10-16T12:40:31;100969.09;;;22.06;69.14
13367;BME280;6752;52.612;13.630;2022-10-16T12:45:35;100960.75;;;22.64;69.34
13367;BME280;6752;52.612;13.630;2022-10-16T12:50:38;100967.88;;;21.95;66.10
13367;BME280;6752;52.612;13.630;2022-10-16T12:55:45;100980.73;;;22.25;65.86
13367;BME280;6752;52.612;13.630;2022-10-16T13:00:46;100980.73;;;22.22;66.96
13367;BME280;6752;52.612;13.630;2022-10-16T13:06:17;100982.32;;;21.75;65.92
13367;BME280;6752;52.612;13.630;2022-10-16T13:11:32;100993.66;;;21.61;66.41
13367;BME280;6752;52.612;13.630;2022-10-16T13:17:01;101008.47;;;21.66;69.85
13367;BME280;6752;52.612;13.630;2022-10-16T13:22:14;101005.53;;;21.45;66.90
13367;BME280;6752;52.612;13.630;2022-10-16T13:32:40;101009.22;;;21.27;64.82
13367;BME280;6752;52.612;13.630;2022-10-16T13:37:42;101027.30;;;21.02;65.35
13367;BME280;6752;52.612;13.630;2022-10-16T13:42:51;101032.03;;;20.96;65.38
13367;BME280;6752;52.612;13.630;2022-10-16T13:48:12;101027.86;;;20.99;66.47
13367;BME280;6752;52.612;13.630;2022-10-16T13:53:12;101022.70;;;21.14;67.38
13367;BME280;6752;52.612;13.630;2022-10-16T13:58:13;101033.70;;;20.95;69.41
13367;BME280;6752;52.612;13.630;2022-10-16T14:03:16;101030.29;;;21.26;67.77
13367;BME280;6752;52.612;13.630;2022-10-16T14:08:21;101039.44;;;21.26;68.06
13367;BME280;6752;52.612;13.630;2022-10-16T14:13:34;101053.41;;;20.86;69.55
13367;BME280;6752;52.612;13.630;2022-10-16T14:18:31;101055.89;;;20.80;70.90
13367;BME280;6752;52.612;13.630;2022-10-16T14:23:36;101064.78;;;20.72;71.01
13367;BME280;6752;52.612;13.630;2022-10-16T14:28:42;101058.44;;;21.24;70.99
13367;BME280;6752;52.612;13.630;2022-10-16T14:33:45;101055.78;;;21.23;69.51
13367;BME280;6752;52.612;13.630;2022-10-16T14:38:55;101064.92;;;21.23;70.49
13367;BME280;6752;52.612;13.630;2022-10-16T14:43:55;101062.78;;;21.00;70.07
13367;BME280;6752;52.612;13.630;2022-10-16T14:49:04;101058.16;;;21.18;69.90
13367;BME280;6752;52.612;13.630;2022-10-16T14:54:02;101059.52;;;21.35;68.75
13367;BME280;6752;52.612;13.630;2022-10-16T14:59:05;101073.14;;;21.17;68.52
13367;BME280;6752;52.612;13.630;2022-10-16T15:04:10;101079.09;;;21.24;67.98
13367;BME280;6752;52.612;13.630;2022-10-16T15:09:13;101081.20;;;21.10;68.36
13367;BME280;6752;52.612;13.630;2022-10-16T15:14:18;101089.34;;;21.34;67.67
13367;BME280;6752;52.612;13.630;2022-10-16T15:19:21;101092.29;;;21.00;67.61
13367;BME280;6752;52.612;13.630;2022-10-16T15:24:26;101096.73;;;20.96;69.58
13367;BME280;6752;52.612;13.630;2022-10-16T15:29:29;101099.05;;;21.19;69.27
13367;BME280;6752;52.612;13.630;2022-10-16T15:34:34;101110.44;;;21.10;70.62
13367;BME280;6752;52.612;13.630;2022-10-16T15:39:37;101117.14;;;20.63;72.83
13367;BME280;6752;52.612;13.630;2022-10-16T15:44:39;101121.92;;;20.31;73.41
13367;BME280;6752;52.612;13.630;2022-10-16T15:49:41;101132.61;;;19.87;74.55
13367;BME280;6752;52.612;13.630;2022-10-16T15:54:47;101140.46;;;19.74;75.30
13367;BME280;6752;52.612;13.630;2022-10-16T15:59:49;101162.16;;;19.50;75.70
13367;BME280;6752;52.612;13.630;2022-10-16T16:04:51;101162.17;;;19.26;74.87
13367;BME280;6752;52.612;13.630;2022-10-16T16:09:54;101165.59;;;19.20;75.78
13367;BME280;6752;52.612;13.630;2022-10-16T16:14:59;101171.16;;;18.91;76.31
13367;BME280;6752;52.612;13.630;2022-10-16T16:20:02;101170.77;;;18.74;77.48
13367;BME280;6752;52.612;13.630;2022-10-16T16:25:06;101178.94;;;18.64;78.80
13367;BME280;6752;52.612;13.630;2022-10-16T16:30:09;101198.16;;;18.43;81.15
13367;BME280;6752;52.612;13.630;2022-10-16T16:35:11;101213.98;;;17.90;83.04
13367;BME280;6752;52.612;13.630;2022-10-16T16:40:13;101216.66;;;17.47;84.59
13367;BME280;6752;52.612;13.630;2022-10-16T16:45:15;101216.82;;;17.57;86.67
13367;BME280;6752;52.612;13.630;2022-10-16T16:50:17;101227.91;;;17.51;86.96
13367;BME280;6752;52.612;13.630;2022-10-16T16:55:20;101238.08;;;17.31;86.89
13367;BME280;6752;52.612;13.630;2022-10-16T17:00:22;101244.17;;;17.16;87.69
13367;BME280;6752;52.612;13.630;2022-10-16T17:05:24;101262.30;;;17.04;86.93
13367;BME280;6752;52.612;13.630;2022-10-16T17:10:26;101270.03;;;16.76;87.84
13367;BME280;6752;52.612;13.630;2022-10-16T17:15:29;101282.05;;;16.64;88.60
13367;BME280;6752;52.612;13.630;2022-10-16T17:20:32;101289.67;;;16.54;88.56
13367;BME280;6752;52.612;13.630;2022-10-16T17:25:40;101297.05;;;16.31;88.99
13367;BME280;6752;52.612;13.630;2022-10-16T17:30:39;101300.70;;;16.14;89.57
13367;BME280;6752;52.612;13.630;2022-10-16T17:35:46;101306.00;;;15.92;90.11
13367;BME280;6752;52.612;13.630;2022-10-16T17:40:46;101313.37;;;15.65;90.65
13367;BME280;6752;52.612;13.630;2022-10-16T17:45:48;101323.68;;;15.34;91.56
13367;BME280;6752;52.612;13.630;2022-10-16T17:50:51;101326.33;;;15.14;92.19
13367;BME280;6752;52.612;13.630;2022-10-16T17:55:53;101338.37;;;15.01;92.78
13367;BME280;6752;52.612;13.630;2022-10-16T18:00:56;101340.55;;;14.81;93.92
13367;BME280;6752;52.612;13.630;2022-10-16T18:06:00;101333.16;;;14.81;92.58
13367;BME280;6752;52.612;13.630;2022-10-16T18:11:01;101334.34;;;14.65;91.64
13367;BME280;6752;52.612;13.630;2022-10-16T18:16:06;101347.69;;;14.46;92.73
13367;BME280;6752;52.612;13.630;2022-10-16T18:21:08;101344.25;;;14.38;92.36
13367;BME280;6752;52.612;13.630;2022-10-16T18:26:10;101350.66;;;14.32;92.71
13367;BME280;6752;52.612;13.630;2022-10-16T18:31:13;101361.59;;;14.08;94.47
13367;BME280;6752;52.612;13.630;2022-10-16T18:36:14;101366.23;;;14.07;94.07
13367;BME280;6752;52.612;13.630;2022-10-16T18:41:17;101366.81;;;13.82;93.97
13367;BME280;6752;52.612;13.630;2022-10-16T18:46:20;101371.44;;;13.60;100.00
13367;BME280;6752;52.612;13.630;2022-10-16T18:51:23;101383.50;;;13.65;96.70
13367;BME280;6752;52.612;13.630;2022-10-16T18:56:25;101388.61;;;13.49;95.15
13367;BME280;6752;52.612;13.630;2022-10-16T19:01:27;101397.24;;;13.49;93.95
13367;BME280;6752;52.612;13.630;2022-10-16T19:06:31;101418.57;;;12.51;99.61
13367;BME280;6752;52.612;13.630;2022-10-16T19:11:31;101400.56;;;13.00;100.00
13367;BME280;6752;52.612;13.630;2022-10-16T19:16:34;101388.31;;;12.90;100.00
13367;BME280;6752;52.612;13.630;2022-10-16T19:21:36;101408.77;;;12.62;100.00
13367;BME280;6752;52.612;13.630;2022-10-16T19:26:41;101427.18;;;12.61;100.00
13367;BME280;6752;52.612;13.630;2022-10-16T19:31:44;101425.98;;;12.69;100.00
13367;BME280;6752;52.612;13.630;2022-10-16T19:36:46;101422.02;;;12.62;100.00
13367;BME280;6752;52.612;13.630;2022-10-16T19:41:48;101413.58;;;12.67;99.58
13367;BME280;6752;52.612;13.630;2022-10-16T19:46:50;101419.08;;;12.60;100.00
13367;BME280;6752;52.612;13.630;2022-10-16T19:51:55;101428.25;;;12.50;100.00
13367;BME280;6752;52.612;13.630;2022-10-16T19:56:58;101442.45;;;12.50;100.00
13367;BME280;6752;52.612;13.630;2022-10-16T20:02:00;101449.07;;;12.51;100.00
13367;BME280;6752;52.612;13.630;2022-10-16T20:07:07;101439.45;;;12.39;100.00
13367;BME280;6752;52.612;13.630;2022-10-16T20:12:09;101455.09;;;12.44;100.00
13367;BME280;6752;52.612;13.630;2022-10-16T20:17:12;101460.02;;;12.51;100.00
13367;BME280;6752;52.612;13.630;2022-10-16T20:22:14;101464.33;;;12.56;100.00
13367;BME280;6752;52.612;13.630;2022-10-16T20:27:16;101471.91;;;12.54;100.00
13367;BME280;6752;52.612;13.630;2022-10-16T20:32:19;101473.80;;;12.47;100.00
13367;BME280;6752;52.612;13.630;2022-10-16T20:37:22;101477.95;;;12.34;100.00
13367;BME280;6752;52.612;13.630;2022-10-16T20:42:24;101485.30;;;12.37;100.00
13367;BME280;6752;52.612;13.630;2022-10-16T20:47:26;101488.89;;;12.21;100.00
13367;BME280;6752;52.612;13.630;2022-10-16T20:52:32;101497.93;;;12.01;100.00
13367;BME280;6752;52.612;13.630;2022-10-16T20:57:33;101502.77;;;12.16;100.00
13367;BME280;6752;52.612;13.630;2022-10-16T21:02:36;101505.49;;;12.36;100.00
13367;BME280;6752;52.612;13.630;2022-10-16T21:07:38;101499.48;;;12.43;100.00
13367;BME280;6752;52.612;13.630;2022-10-16T21:12:41;101498.53;;;12.30;100.00
13367;BME280;6752;52.612;13.630;2022-10-16T21:17:43;101504.66;;;11.95;100.00
13367;BME280;6752;52.612;13.630;2022-10-16T21:22:45;101504.67;;;12.15;100.00
13367;BME280;6752;52.612;13.630;2022-10-16T21:27:48;101510.02;;;12.19;100.00
13367;BME280;6752;52.612;13.630;2022-10-16T21:32:50;101505.61;;;12.18;100.00
13367;BME280;6752;52.612;13.630;2022-10-16T21:37:52;101510.98;;;12.12;100.00
13367;BME280;6752;52.612;13.630;2022-10-16T21:42:54;101516.33;;;12.20;100.00
13367;BME280;6752;52.612;13.630;2022-10-16T21:47:57;101528.31;;;12.19;100.00
13367;BME280;6752;52.612;13.630;2022-10-16T21:52:59;101539.87;;;12.24;100.00
13367;BME280;6752;52.612;13.630;2022-10-16T21:58:01;101545.34;;;12.21;100.00
13367;BME280;6752;52.612;13.630;2022-10-16T22:03:04;101556.36;;;12.30;100.00
13367;BME280;6752;52.612;13.630;2022-10-16T22:08:06;101581.50;;;12.23;100.00
13367;BME280;6752;52.612;13.630;2022-10-16T22:13:11;101564.49;;;12.31;100.00
13367;BME280;6752;52.612;13.630;2022-10-16T22:18:14;101556.48;;;12.42;100.00
13367;BME280;6752;52.612;13.630;2022-10-16T22:23:16;101553.76;;;12.36;100.00
13367;BME280;6752;52.612;13.630;2022-10-16T22:28:18;101537.04;;;12.18;100.00
13367;BME280;6752;52.612;13.630;2022-10-16T22:33:21;101532.32;;;12.10;100.00
13367;BME280;6752;52.612;13.630;2022-10-16T22:38:29;101547.95;;;12.05;100.00
13367;BME280;6752;52.612;13.630;2022-10-16T22:43:36;101532.64;;;12.07;100.00
13367;BME280;6752;52.612;13.630;2022-10-16T22:48:36;101532.73;;;12.17;100.00
13367;BME280;6752;52.612;13.630;2022-10-16T22:53:39;101560.25;;;11.98;100.00
13367;BME280;6752;52.612;13.630;2022-10-16T22:58:45;101569.61;;;12.03;100.00
13367;BME280;6752;52.612;13.630;2022-10-16T23:03:47;101554.69;;;11.86;100.00
13367;BME280;6752;52.612;13.630;2022-10-16T23:08:51;101558.89;;;11.89;100.00
13367;BME280;6752;52.612;13.630;2022-10-16T23:13:52;101572.55;;;11.98;100.00
13367;BME280;6752;52.612;13.630;2022-10-16T23:18:58;101578.12;;;12.04;100.00
13367;BME280;6752;52.612;13.630;2022-10-16T23:24:00;101578.15;;;12.08;100.00
13367;BME280;6752;52.612;13.630;2022-10-16T23:29:05;101562.91;;;12.09;100.00
13367;BME280;6752;52.612;13.630;2022-10-16T23:34:07;101556.57;;;12.05;100.00
13367;BME280;6752;52.612;13.630;2022-10-16T23:39:10;101564.98;;;11.97;100.00
13367;BME280;6752;52.612;13.630;2022-10-16T23:44:14;101563.74;;;12.16;100.00
13367;BME280;6752;52.612;13.630;2022-10-16T23:49:17;101586.13;;;12.19;100.00
13367;BME280;6752;52.612;13.630;2022-10-16T23:54:31;101594.11;;;12.27;100.00
13367;BME280;6752;52.612;13.630;2022-10-16T23:59:34;101590.75;;;12.28;100.00
